Taylor, Arizona
Current Conditions -  °F | °C
As of 8:55 AM on Saturday 22 Nov 2014 (Local Time) from KSOW Reporting Station
Clear Clear  
Wind Chill: 37°   Ceiling: Unl
Heat Index: 37°   Visibility: 10mi
Dew Point: 18°   Wind: 0mph
Humidity: 45%   Direction: NA
Pressure: 30.19"   Gusts: NA
Location:  34.47°N, 110.09°W
Report Text: KSOW 221555Z AUTO 00000KT 10SM CLR 03/M08 A3019 RMK AO2
Loading
Personal Weather Stations






























Interactive Weather Map New forecast layout! Learn more

10-Day Weather Forecast

Advertisements
Track Severe Weather on mobile